Time;durP1;ratioP1;P1;durP2;ratioP2;P2;SDS_P1;SDS_P2;PMS_P1;PMS_P2;Temp;Humidity;BMP_temperature;BMP_pressure;BME280_temperature;BME280_humidity;BME280_pressure;Samples;Min_cycle;Max_cycle;Signal;HPM_P1;HPM_P2
2022/06/16 00:00:49;;;;;;;3.90;1.92;;;;;;;17.69;78.31;100845.69;5189320;28;20492;-74
2022/06/16 00:03:19;;;;;;;3.00;1.50;;;;;;;17.56;78.35;100839.44;5199772;28;20561;-74
2022/06/16 00:05:50;;;;;;;4.57;1.80;;;;;;;17.60;78.83;100835.66;5181666;28;20037;-74
2022/06/16 00:08:21;;;;;;;4.97;1.95;;;;;;;17.52;78.77;100837.91;5202596;28;20032;-73
2022/06/16 00:13:40;;;;;;;3.13;1.80;;;;;;;17.59;78.04;100832.19;5187625;28;20030;-74
2022/06/16 00:16:11;;;;;;;3.47;1.63;;;;;;;17.55;77.62;100832.44;5194814;28;20022;-75
2022/06/16 00:18:42;;;;;;;4.60;1.80;;;;;;;17.52;77.92;100832.63;5203310;28;20067;-74
2022/06/16 00:21:12;;;;;;;5.10;1.70;;;;;;;17.47;78.16;100834.72;5200273;28;20049;-74
2022/06/16 00:23:44;;;;;;;3.13;1.55;;;;;;;17.37;78.27;100838.81;5201943;28;20079;-74
2022/06/16 00:26:17;;;;;;;4.80;1.80;;;;;;;17.29;78.46;100838.41;5189550;28;20034;-74
2022/06/16 00:28:49;;;;;;;3.70;1.60;;;;;;;17.20;78.62;100836.28;5185801;28;20022;-74
2022/06/16 00:31:21;;;;;;;4.45;2.05;;;;;;;17.16;78.86;100842.69;5189363;28;20103;-74
2022/06/16 00:33:52;;;;;;;5.80;1.77;;;;;;;17.08;79.24;100839.63;5203493;28;20032;-74
2022/06/16 00:36:24;;;;;;;4.78;1.50;;;;;;;17.05;78.94;100831.91;5168103;28;20034;-74
2022/06/16 00:38:54;;;;;;;4.75;1.85;;;;;;;16.94;78.98;100829.03;5184728;28;20479;-74
2022/06/16 00:41:24;;;;;;;5.78;1.70;;;;;;;17.07;78.67;100833.50;5192209;28;20041;-74
2022/06/16 00:44:00;;;;;;;3.35;1.60;;;;;;;17.12;78.43;100830.63;5196559;28;20093;-75
2022/06/16 00:46:30;;;;;;;3.47;1.80;;;;;;;17.11;78.75;100826.28;5194601;28;20029;-75
2022/06/16 00:49:06;;;;;;;4.35;1.80;;;;;;;17.08;78.62;100827.28;5203082;28;20033;-74
2022/06/16 00:51:48;;;;;;;4.63;1.88;;;;;;;17.07;78.69;100820.31;5202688;28;20079;-74
2022/06/16 00:54:20;;;;;;;4.97;1.75;;;;;;;17.06;78.83;100821.25;5197532;28;20056;-75
2022/06/16 00:56:54;;;;;;;5.05;1.70;;;;;;;17.06;78.65;100820.38;5202096;28;20024;-74
2022/06/16 00:59:24;;;;;;;6.45;1.77;;;;;;;17.02;78.83;100821.50;5193150;28;20030;-74
2022/06/16 01:01:55;;;;;;;4.32;1.73;;;;;;;17.07;78.68;100817.66;5196852;28;20638;-74
2022/06/16 01:07:17;;;;;;;3.50;1.77;;;;;;;16.89;79.14;100816.09;5196229;28;20032;-75
2022/06/16 01:09:47;;;;;;;4.55;1.73;;;;;;;16.70;80.25;100814.56;5203162;28;20026;-73
2022/06/16 01:15:24;;;;;;;2.40;1.42;;;;;;;16.87;79.20;100823.25;5190092;28;20521;-74
2022/06/16 01:18:14;;;;;;;4.22;1.60;;;;;;;16.97;79.17;100820.94;5180603;28;20555;-73
2022/06/16 01:20:53;;;;;;;3.78;1.45;;;;;;;16.84;79.33;100818.13;5196140;28;20053;-74
2022/06/16 01:24:01;;;;;;;7.80;1.80;;;;;;;17.02;78.98;100817.09;5202266;28;20448;-74
2022/06/16 01:26:34;;;;;;;6.80;1.80;;;;;;;16.98;78.70;100814.72;5200062;28;20021;-73
2022/06/16 01:29:30;;;;;;;5.00;1.70;;;;;;;17.02;78.76;100800.38;5194689;28;20028;-74
2022/06/16 01:32:06;;;;;;;3.83;1.90;;;;;;;16.86;79.17;100808.34;5195385;28;20028;-74
2022/06/16 01:34:39;;;;;;;3.25;1.75;;;;;;;16.92;78.51;100815.03;5202223;28;20025;-74
2022/06/16 01:37:26;;;;;;;5.72;2.30;;;;;;;16.83;78.79;100813.78;5193993;28;20029;-74
2022/06/16 01:40:23;;;;;;;4.38;2.00;;;;;;;16.81;78.88;100807.75;5201582;28;20128;-74
2022/06/16 01:43:20;;;;;;;3.05;1.60;;;;;;;16.75;79.15;100796.69;5148148;28;20069;-74
2022/06/16 01:45:50;;;;;;;;;;;;;;;16.78;79.13;100817.66;5192234;28;20100;-74
2022/06/16 01:48:22;;;;;;;5.00;2.13;;;;;;;16.42;80.35;100829.41;5200968;28;20001;-74
2022/06/16 01:51:06;;;;;;;4.25;1.70;;;;;;;16.47;79.90;100827.34;5201843;28;20483;-74
2022/06/16 01:53:51;;;;;;;5.32;1.73;;;;;;;16.47;79.75;100830.00;5201556;28;20035;-74
2022/06/16 01:56:29;;;;;;;4.15;1.90;;;;;;;16.60;79.60;100818.69;5196825;28;20240;-74
2022/06/16 01:59:03;;;;;;;5.82;1.77;;;;;;;16.47;80.50;100825.59;5194138;28;20029;-75
2022/06/16 02:01:40;;;;;;;3.13;1.70;;;;;;;16.42;79.97;100830.25;5193783;28;20108;-74
2022/06/16 02:04:19;;;;;;;3.22;1.80;;;;;;;16.45;80.27;100831.88;5194399;28;20513;-74
2022/06/16 02:06:54;;;;;;;4.38;1.80;;;;;;;16.56;80.19;100838.25;5200991;28;20025;-75
2022/06/16 02:09:30;;;;;;;5.40;2.00;;;;;;;16.43;80.31;100846.94;5201520;28;20029;-74
2022/06/16 02:12:07;;;;;;;3.70;1.80;;;;;;;16.54;80.15;100845.41;5201692;28;20474;-75
2022/06/16 02:14:44;;;;;;;3.28;1.80;;;;;;;16.36;80.68;100846.41;5182999;28;20061;-75
2022/06/16 02:17:15;;;;;;;4.32;1.80;;;;;;;16.43;79.97;100837.25;5178590;28;20037;-73
2022/06/16 02:19:45;;;;;;;4.32;2.00;;;;;;;16.53;79.73;100841.06;5201139;28;20032;-74
2022/06/16 02:22:16;;;;;;;3.42;1.70;;;;;;;16.53;79.72;100838.44;5201416;28;20025;-74
2022/06/16 02:24:46;;;;;;;4.57;1.80;;;;;;;16.52;80.16;100830.63;5201276;28;20056;-73
2022/06/16 02:27:17;;;;;;;4.40;1.80;;;;;;;16.42;80.17;100822.31;5200914;28;20045;-74
2022/06/16 02:29:47;;;;;;;4.50;1.90;;;;;;;16.23;80.13;100813.69;5190034;28;20160;-74
2022/06/16 02:32:32;;;;;;;3.65;1.73;;;;;;;16.25;81.14;100840.84;5196975;28;20029;-74
2022/06/16 02:35:34;;;;;;;5.53;1.80;;;;;;;16.21;80.73;100839.31;5201034;28;20290;-74
2022/06/16 02:38:16;;;;;;;4.07;1.85;;;;;;;16.21;81.00;100852.50;5199515;28;20713;-75
2022/06/16 02:40:47;;;;;;;5.38;1.90;;;;;;;16.19;81.24;100851.72;5195414;28;20100;-73
2022/06/16 02:43:17;;;;;;;3.33;1.73;;;;;;;16.04;81.54;100839.38;5196996;28;20139;-74
2022/06/16 02:45:48;;;;;;;2.50;1.60;;;;;;;15.88;82.17;100829.72;5189661;28;20498;-75
2022/06/16 02:48:32;;;;;;;5.82;1.90;;;;;;;16.19;81.02;100842.97;5198980;28;20048;-74
2022/06/16 02:51:09;;;;;;;4.07;1.90;;;;;;;16.16;80.93;100848.41;5200624;28;20053;-74
2022/06/16 02:56:42;;;;;;;3.75;1.92;;;;;;;16.24;81.01;100833.03;5200501;28;20029;-74
2022/06/16 02:59:19;;;;;;;4.97;2.10;;;;;;;16.09;80.79;100829.44;5185963;28;20025;-74
2022/06/16 03:01:51;;;;;;;3.42;1.80;;;;;;;16.10;81.13;100836.41;5193769;28;20025;-74
2022/06/16 03:04:21;;;;;;;4.20;1.90;;;;;;;16.09;81.68;100829.44;5182467;28;20030;-74
2022/06/16 03:06:52;;;;;;;4.15;1.92;;;;;;;16.05;80.91;100830.53;5199694;28;20022;-74
2022/06/16 03:09:22;;;;;;;3.33;1.80;;;;;;;16.04;80.95;100828.81;5200274;28;20108;-74
2022/06/16 03:11:52;;;;;;;3.20;1.73;;;;;;;16.01;81.71;100833.44;5166471;28;20391;-74
2022/06/16 03:14:23;;;;;;;4.65;2.10;;;;;;;16.01;81.84;100843.97;5192112;28;20517;-74
2022/06/16 03:16:53;;;;;;;4.97;2.15;;;;;;;15.74;82.89;100846.25;5175870;28;20033;-74
2022/06/16 03:19:24;;;;;;;3.65;1.80;;;;;;;15.75;82.53;100855.88;5181998;28;20076;-74
2022/06/16 03:21:56;;;;;;;6.03;2.00;;;;;;;15.70;82.79;100854.41;5200006;28;20025;-74
2022/06/16 03:24:26;;;;;;;4.32;1.98;;;;;;;15.66;82.80;100866.91;5182322;28;20033;-75
2022/06/16 03:26:57;;;;;;;5.90;1.98;;;;;;;15.62;82.77;100872.38;5181849;28;20407;-73
2022/06/16 03:29:28;;;;;;;3.70;2.00;;;;;;;15.49;83.77;100873.94;5189803;28;20029;-73
2022/06/16 03:31:58;;;;;;;6.30;2.10;;;;;;;15.72;82.87;100869.19;5195129;28;20113;-75
2022/06/16 03:34:30;;;;;;;5.45;1.80;;;;;;;15.51;83.41;100870.31;5200077;28;20071;-74
2022/06/16 03:37:00;;;;;;;3.85;1.92;;;;;;;15.74;81.96;100864.69;5200102;28;20033;-73
2022/06/16 03:39:31;;;;;;;7.00;2.25;;;;;;;15.81;81.87;100867.88;5199831;28;20030;-74
2022/06/16 03:42:01;;;;;;;5.75;2.10;;;;;;;15.96;81.33;100867.94;5201611;28;20040;-74
2022/06/16 03:44:31;;;;;;;5.28;2.00;;;;;;;15.82;82.78;100859.91;5194842;28;20042;-74
2022/06/16 03:47:02;;;;;;;7.10;1.80;;;;;;;15.93;81.53;100867.22;5199478;28;20030;-73
2022/06/16 03:49:32;;;;;;;6.72;1.80;;;;;;;15.93;82.11;100862.81;5203280;28;20036;-74
2022/06/16 03:52:03;;;;;;;3.90;1.80;;;;;;;15.83;81.80;100856.31;5204070;28;20021;-74
2022/06/16 03:54:33;;;;;;;3.63;1.90;;;;;;;15.96;80.88;100849.47;5204003;28;20394;-74
2022/06/16 03:57:04;;;;;;;5.22;1.98;;;;;;;16.20;80.17;100849.97;5185839;28;20060;-73
2022/06/16 03:59:34;;;;;;;5.88;2.03;;;;;;;15.87;81.81;100857.84;5192612;28;20035;-73
2022/06/16 04:02:05;;;;;;;3.58;1.83;;;;;;;15.99;80.97;100848.44;5198024;28;20398;-74
2022/06/16 04:04:35;;;;;;;4.18;2.00;;;;;;;16.12;80.95;100846.88;5203167;28;20090;-74
2022/06/16 04:07:05;;;;;;;4.28;2.03;;;;;;;16.08;81.75;100840.91;5203478;28;20112;-74
2022/06/16 04:09:36;;;;;;;5.93;2.25;;;;;;;16.17;81.82;100855.38;5197350;28;20491;-74
2022/06/16 04:12:06;;;;;;;4.90;1.92;;;;;;;16.22;81.64;100853.34;5195326;28;20021;-74
2022/06/16 04:14:37;;;;;;;4.70;2.05;;;;;;;16.23;81.57;100855.91;5202938;28;20032;-74
2022/06/16 04:17:08;;;;;;;5.75;2.13;;;;;;;16.11;81.15;100867.13;5194802;28;20025;-74
2022/06/16 04:20:11;;;;;;;4.40;1.90;;;;;;;16.25;81.32;100869.84;5202263;28;20021;-74
2022/06/16 04:22:29;;;;;;;7.50;2.10;;;;;;;16.14;80.98;100881.91;5202235;28;20025;-74
2022/06/16 04:24:59;;;;;;;6.80;2.00;;;;;;;16.26;80.54;100897.97;5192210;28;20035;-74
2022/06/16 04:27:29;;;;;;;6.25;2.10;;;;;;;16.27;81.30;100902.31;5198089;28;20128;-74
2022/06/16 04:30:00;;;;;;;7.53;2.13;;;;;;;16.19;80.72;100901.84;5187516;28;20522;-74
2022/06/16 04:32:30;;;;;;;6.40;2.08;;;;;;;16.15;81.06;100905.56;5190460;28;20483;-74
2022/06/16 04:35:01;;;;;;;4.18;2.15;;;;;;;16.19;80.73;100906.28;5193155;28;20080;-74
2022/06/16 04:37:31;;;;;;;4.47;2.40;;;;;;;16.18;80.46;100894.88;5201893;28;20087;-73
2022/06/16 04:40:01;;;;;;;5.93;2.10;;;;;;;16.25;80.80;100885.69;5185021;28;20091;-74
2022/06/16 04:42:32;;;;;;;3.92;2.05;;;;;;;16.26;80.46;100882.13;5202767;28;20109;-74
2022/06/16 04:45:03;;;;;;;4.68;2.22;;;;;;;16.08;80.18;100885.72;5203211;28;20017;-75
2022/06/16 04:47:33;;;;;;;6.30;2.42;;;;;;;16.25;80.75;100892.75;5183429;28;20538;-73
2022/06/16 04:50:05;;;;;;;3.65;1.85;;;;;;;16.47;80.61;100893.31;5189375;28;20116;-73
2022/06/16 04:52:36;;;;;;;4.35;2.03;;;;;;;16.36;80.16;100896.53;5198792;28;20025;-74
2022/06/16 04:55:06;;;;;;;3.25;2.08;;;;;;;16.40;80.28;100900.72;5163014;28;20029;-73
2022/06/16 04:57:37;;;;;;;3.65;2.00;;;;;;;16.44;79.42;100901.41;5182870;28;20029;-74
2022/06/16 05:00:11;;;;;;;4.20;2.33;;;;;;;16.58;79.87;100905.00;5186743;28;20032;-74
2022/06/16 05:02:41;;;;;;;4.95;1.90;;;;;;;16.68;79.35;100900.91;5194646;28;20025;-75
2022/06/16 05:05:11;;;;;;;5.38;1.95;;;;;;;16.69;79.19;100897.34;5202708;28;20087;-74
2022/06/16 05:07:42;;;;;;;4.60;2.13;;;;;;;16.47;80.10;100904.75;5201780;28;20021;-74
2022/06/16 05:10:12;;;;;;;3.92;2.00;;;;;;;16.57;79.36;100897.16;5202299;28;20084;-74
2022/06/16 05:12:43;;;;;;;3.83;1.92;;;;;;;16.77;78.69;100897.78;5201889;28;20109;-74
2022/06/16 05:15:13;;;;;;;5.53;2.20;;;;;;;16.79;78.62;100898.56;5193835;28;20041;-73
2022/06/16 05:17:43;;;;;;;4.97;2.05;;;;;;;16.72;77.69;100898.97;5194736;28;20048;-74
2022/06/16 05:20:14;;;;;;;4.35;2.17;;;;;;;16.76;78.08;100906.63;5201934;28;20037;-73
2022/06/16 05:22:44;;;;;;;3.17;2.00;;;;;;;16.82;78.60;100908.94;5184342;28;20029;-74
2022/06/16 05:25:15;;;;;;;5.40;2.30;;;;;;;16.91;77.41;100904.00;5202039;28;20042;-73
2022/06/16 05:27:45;;;;;;;6.63;2.42;;;;;;;16.86;78.33;100899.91;5195478;28;20041;-74
2022/06/16 05:30:16;;;;;;;5.78;2.17;;;;;;;16.99;78.23;100903.56;5190301;28;20028;-75
2022/06/16 05:32:46;;;;;;;5.65;2.28;;;;;;;17.25;77.16;100908.19;5197632;28;20028;-73
2022/06/16 05:35:16;;;;;;;5.65;2.25;;;;;;;18.51;73.07;100908.47;5182505;28;20025;-73
2022/06/16 05:37:47;;;;;;;6.63;2.50;;;;;;;18.67;71.75;100911.88;5199246;28;20022;-73
2022/06/16 05:40:17;;;;;;;5.47;2.13;;;;;;;19.16;70.16;100917.47;5198217;28;20025;-73
2022/06/16 05:42:47;;;;;;;4.18;2.17;;;;;;;19.43;69.03;100931.53;5195294;28;20024;-73
2022/06/16 05:45:18;;;;;;;4.53;2.00;;;;;;;19.50;69.78;100932.84;5200297;28;20037;-73
2022/06/16 05:47:48;;;;;;;5.72;2.30;;;;;;;19.14;70.77;100939.66;5200362;28;20040;-74
2022/06/16 05:50:19;;;;;;;6.75;2.20;;;;;;;19.09;71.85;100934.66;5196729;28;20035;-74
2022/06/16 05:52:49;;;;;;;5.80;2.17;;;;;;;19.62;69.06;100937.31;5201678;28;20536;-74
2022/06/16 05:55:20;;;;;;;5.75;2.15;;;;;;;19.52;68.56;100940.66;5200815;28;20032;-74
2022/06/16 05:57:50;;;;;;;6.80;2.13;;;;;;;20.25;68.50;100945.38;5189344;28;20530;-74
2022/06/16 06:00:20;;;;;;;5.20;2.33;;;;;;;20.38;67.35;100949.75;5189794;28;20037;-73
2022/06/16 06:02:54;;;;;;;6.93;2.47;;;;;;;20.31;66.14;100964.38;5197885;28;20034;-75
2022/06/16 06:05:26;;;;;;;4.60;2.38;;;;;;;20.50;67.71;100961.31;5190307;28;20061;-74
2022/06/16 06:16:25;;;;;;;7.00;2.67;;;;;;;20.15;68.24;100963.75;5197877;28;20600;-71
2022/06/16 06:18:57;;;;;;;7.35;2.92;;;;;;;20.40;69.41;100965.56;5200984;28;20021;-74
2022/06/16 06:24:17;;;;;;;7.45;2.90;;;;;;;19.86;70.13;100986.09;5195508;28;20040;-74
2022/06/16 06:26:47;;;;;;;7.03;2.80;;;;;;;19.89;70.73;100985.00;5200655;28;20025;-73
2022/06/16 06:29:17;;;;;;;4.82;2.63;;;;;;;19.84;69.93;100985.34;5192525;28;20030;-75
2022/06/16 06:31:48;;;;;;;7.85;2.80;;;;;;;19.99;69.31;100978.13;5194516;28;20021;-73
2022/06/16 06:34:18;;;;;;;4.85;2.42;;;;;;;20.09;70.05;100977.44;5195293;28;20025;-74
2022/06/16 06:36:49;;;;;;;7.82;2.72;;;;;;;19.65;70.83;100990.13;5193753;28;20126;-74
2022/06/16 06:39:19;;;;;;;4.85;2.70;;;;;;;19.85;70.31;100992.34;5200765;28;20025;-74
2022/06/16 06:41:49;;;;;;;4.07;2.50;;;;;;;20.19;69.67;100980.31;5199822;28;20021;-75
2022/06/16 06:44:20;;;;;;;6.85;2.40;;;;;;;20.31;69.25;100992.75;5200107;28;20180;-74
2022/06/16 06:46:50;;;;;;;6.97;2.72;;;;;;;20.32;69.22;101002.41;5200216;28;20601;-73
2022/06/16 06:49:21;;;;;;;6.28;2.38;;;;;;;19.82;70.83;101003.13;5200502;28;20029;-73
2022/06/16 06:51:51;;;;;;;4.78;2.50;;;;;;;20.39;69.01;100985.97;5200613;28;20025;-74
2022/06/16 06:54:22;;;;;;;3.88;2.45;;;;;;;20.79;68.01;100987.50;5200627;28;20101;-75
2022/06/16 06:56:53;;;;;;;5.25;2.47;;;;;;;21.12;67.07;100991.31;5200385;28;20025;-74
2022/06/16 06:59:23;;;;;;;6.78;1.95;;;;;;;20.97;66.05;100996.88;5191269;28;20375;-74
2022/06/16 07:01:53;;;;;;;7.53;2.45;;;;;;;20.79;66.79;101001.66;5194803;28;20028;-72
2022/06/16 07:04:24;;;;;;;5.78;2.33;;;;;;;21.07;66.10;101000.56;5176747;28;20032;-73
2022/06/16 07:06:54;;;;;;;6.32;2.13;;;;;;;22.83;62.05;100999.44;5194906;28;20025;-73
2022/06/16 07:09:24;;;;;;;3.25;1.80;;;;;;;23.58;59.78;100999.47;5200506;28;20040;-74
2022/06/16 07:11:55;;;;;;;4.28;1.92;;;;;;;24.38;59.53;100998.84;5200272;28;20121;-73
2022/06/16 07:14:26;;;;;;;5.30;2.17;;;;;;;24.61;57.20;100996.91;5200485;28;20045;-75
2022/06/16 07:16:57;;;;;;;5.28;1.95;;;;;;;25.58;54.97;100993.41;5200169;28;20053;-74
2022/06/16 07:19:27;;;;;;;4.55;1.75;;;;;;;25.89;55.69;100986.97;5200723;28;20088;-75
2022/06/16 07:21:57;;;;;;;6.78;2.08;;;;;;;26.22;52.95;101000.78;5200350;28;20026;-74
2022/06/16 07:24:28;;;;;;;3.88;1.60;;;;;;;26.94;52.08;100997.31;5201250;28;20029;-74
2022/06/16 07:26:59;;;;;;;5.05;1.70;;;;;;;26.58;52.82;100999.16;5202709;28;20087;-75
2022/06/16 07:29:29;;;;;;;4.30;1.75;;;;;;;26.50;52.66;100999.91;5188482;28;20040;-74
2022/06/16 07:32:00;;;;;;;4.63;1.60;;;;;;;25.23;54.25;101001.97;5189774;28;20018;-73
2022/06/16 07:34:30;;;;;;;6.30;1.80;;;;;;;25.46;54.31;101018.66;5192281;28;20076;-74
2022/06/16 07:37:02;;;;;;;4.00;1.63;;;;;;;24.70;55.41;101023.69;5194129;28;20025;-73
2022/06/16 07:39:32;;;;;;;5.28;1.70;;;;;;;24.28;54.97;101026.47;5202825;28;20034;-73
2022/06/16 07:42:03;;;;;;;4.93;1.70;;;;;;;23.93;56.04;101024.13;5185265;28;20032;-73
2022/06/16 07:44:33;;;;;;;5.97;1.58;;;;;;;23.39;57.74;101023.28;5202030;28;20116;-73
2022/06/16 07:47:05;;;;;;;3.45;1.65;;;;;;;24.18;56.76;101022.91;5185158;28;20027;-74
2022/06/16 07:49:36;;;;;;;3.60;1.60;;;;;;;24.11;56.88;101024.38;5203370;28;20683;-74
2022/06/16 07:52:07;;;;;;;3.55;1.65;;;;;;;24.35;57.05;101023.16;5203481;28;20079;-73
2022/06/16 07:54:38;;;;;;;5.90;1.90;;;;;;;24.27;56.94;101030.13;5203678;28;20041;-73
2022/06/16 07:57:09;;;;;;;4.13;1.70;;;;;;;24.83;56.15;101032.34;5202504;28;20025;-73
2022/06/16 07:59:39;;;;;;;5.68;1.77;;;;;;;24.48;56.85;101029.16;5190819;28;20018;-74
2022/06/16 08:02:09;;;;;;;3.80;1.85;;;;;;;25.53;55.30;101028.66;5187488;28;20028;-74
2022/06/16 08:04:40;;;;;;;4.22;1.55;;;;;;;25.01;56.10;101044.09;5199355;28;20033;-73
2022/06/16 08:07:10;;;;;;;4.13;1.75;;;;;;;24.90;56.81;101044.19;5191018;28;20021;-73
2022/06/16 08:09:41;;;;;;;4.63;1.73;;;;;;;25.17;55.75;101049.81;5202696;28;20487;-73
2022/06/16 08:12:12;;;;;;;20.10;2.20;;;;;;;24.48;56.40;101039.00;5203396;28;20033;-73
2022/06/16 08:14:46;;;;;;;4.55;1.65;;;;;;;24.25;56.65;101038.28;5195926;28;20025;-73
2022/06/16 08:17:20;;;;;;;4.15;2.08;;;;;;;24.04;57.02;101044.59;5190799;28;20036;-73
2022/06/16 08:19:51;;;;;;;5.55;1.88;;;;;;;25.03;55.15;101044.81;5185232;28;20451;-74
2022/06/16 08:22:23;;;;;;;4.22;1.52;;;;;;;25.34;55.16;101033.13;5203115;28;20064;-73
2022/06/16 08:24:53;;;;;;;5.35;2.08;;;;;;;25.46;53.92;101037.38;5203037;28;20022;-74
2022/06/16 08:27:30;;;;;;;3.78;1.55;;;;;;;26.05;55.71;101022.09;5185581;28;20116;-73
2022/06/16 08:30:03;;;;;;;4.90;1.67;;;;;;;26.21;52.89;101022.38;5191021;28;20248;-74
2022/06/16 08:32:34;;;;;;;6.95;1.77;;;;;;;26.91;52.78;101029.84;5198544;28;20731;-74
2022/06/16 08:35:05;;;;;;;4.88;1.88;;;;;;;26.55;53.24;101032.47;5203075;28;20033;-74
2022/06/16 08:37:36;;;;;;;3.95;1.70;;;;;;;26.01;53.38;101031.41;5202749;28;20355;-73
2022/06/16 08:40:08;;;;;;;3.88;1.70;;;;;;;26.09;53.04;101034.22;5203545;28;20398;-73
2022/06/16 08:42:50;;;;;;;3.92;1.55;;;;;;;27.08;51.94;101038.97;5194610;28;20064;-73
2022/06/16 08:45:36;;;;;;;4.80;1.50;;;;;;;27.61;50.96;101035.41;5195888;28;20052;-73
2022/06/16 08:48:22;;;;;;;3.13;1.65;;;;;;;28.57;50.87;101038.19;5194707;28;20026;-72
2022/06/16 08:51:12;;;;;;;3.97;1.80;;;;;;;28.85;48.58;101046.78;5198622;28;20441;-73
2022/06/16 08:54:01;;;;;;;3.45;1.20;;;;;;;29.28;48.01;101043.16;5196162;28;20561;-74
2022/06/16 08:56:53;;;;;;;3.78;1.50;;;;;;;30.85;46.41;101039.97;5201330;28;20044;-73
2022/06/16 09:00:01;;;;;;;2.53;1.20;;;;;;;30.59;46.04;101037.69;5188326;28;20099;-74
2022/06/16 09:02:41;;;;;;;3.15;1.45;;;;;;;28.80;48.18;101050.94;5197053;28;20540;-74
2022/06/16 09:05:42;;;;;;;4.13;1.45;;;;;;;28.90;48.17;101054.41;5194870;28;20112;-74
2022/06/16 09:08:25;;;;;;;5.47;1.27;;;;;;;27.54;49.59;101049.59;5194840;28;20406;-73
2022/06/16 09:11:26;;;;;;;5.43;1.58;;;;;;;28.54;48.62;101047.44;5203043;28;20075;-74
2022/06/16 09:17:48;;;;;;;5.72;1.65;;;;;;;26.69;52.19;101044.59;5127663;28;20066;-74
2022/06/16 09:20:28;;;;;;;4.85;1.60;;;;;;;28.02;50.79;101050.16;5197110;28;20048;-74
2022/06/16 09:23:09;;;;;;;2.90;1.20;;;;;;;28.51;50.54;101049.59;5201373;28;20026;-74
2022/06/16 09:25:57;;;;;;;4.47;1.45;;;;;;;28.92;49.87;101047.03;5179059;28;20167;-74
2022/06/16 09:28:40;;;;;;;5.53;1.50;;;;;;;30.19;47.35;101045.75;5194249;28;20092;-74
2022/06/16 09:31:25;;;;;;;3.67;1.50;;;;;;;29.56;48.55;101055.41;5186130;28;20025;-74
2022/06/16 09:34:05;;;;;;;2.88;1.33;;;;;;;29.20;47.99;101056.59;5200680;28;20060;-74
2022/06/16 09:36:40;;;;;;;4.72;1.60;;;;;;;28.63;48.96;101057.22;5200705;28;20029;-71
2022/06/16 09:39:22;;;;;;;;;;;;;;;27.70;50.35;101060.53;5193677;28;20021;-74
2022/06/16 09:45:36;;;;;;;3.22;1.40;;;;;;;27.91;49.49;101053.91;5193074;28;20029;-74
2022/06/16 09:48:31;;;;;;;6.25;1.45;;;;;;;27.16;51.86;101057.88;5197465;28;20022;-71
2022/06/16 09:51:07;;;;;;;5.20;1.60;;;;;;;27.08;50.28;101052.38;5200165;28;20064;-75
2022/06/16 09:53:58;;;;;;;5.82;1.40;;;;;;;27.55;49.88;101051.28;5193891;28;20087;-74
2022/06/16 09:56:43;;;;;;;2.75;1.13;;;;;;;27.78;49.01;101053.44;5183409;28;20033;-74
2022/06/16 09:59:18;;;;;;;4.25;1.50;;;;;;;28.35;47.95;101058.38;5187331;28;20514;-74
2022/06/16 10:01:57;;;;;;;4.03;1.38;;;;;;;28.04;48.98;101057.06;5194867;28;20116;-74
2022/06/16 10:04:28;;;;;;;4.90;1.35;;;;;;;28.14;47.88;101054.28;5201255;28;20506;-74
2022/06/16 10:07:15;;;;;;;4.32;1.42;;;;;;;28.15;49.18;101050.59;5200736;28;20071;-74
2022/06/16 10:10:27;;;;;;;4.28;1.20;;;;;;;28.85;48.77;101056.69;5195486;28;20025;-74
2022/06/16 10:13:25;;;;;;;6.63;1.52;;;;;;;27.13;50.12;101068.91;5195570;28;20045;-74
2022/06/16 10:16:18;;;;;;;4.53;1.60;;;;;;;26.90;50.84;101065.72;5168457;28;20442;-74
2022/06/16 10:18:49;;;;;;;3.88;1.40;;;;;;;26.51;51.88;101074.00;5194906;28;20115;-74
2022/06/16 10:21:21;;;;;;;4.68;1.50;;;;;;;25.95;52.14;101072.16;5191398;28;20036;-74
2022/06/16 10:23:57;;;;;;;3.63;1.50;;;;;;;25.78;52.44;101072.78;5200493;28;20096;-74
2022/06/16 10:26:27;;;;;;;3.53;1.30;;;;;;;24.96;53.41;101068.56;5181867;28;20448;-72
2022/06/16 10:29:27;;;;;;;2.75;1.30;;;;;;;24.58;55.26;101080.88;5176002;28;20116;-74
2022/06/16 10:31:59;;;;;;;2.45;1.35;;;;;;;24.49;54.39;101073.63;5193849;28;20124;-73
2022/06/16 10:34:41;;;;;;;3.85;1.60;;;;;;;24.85;55.65;101082.06;5200389;28;20499;-73
2022/06/16 10:37:18;;;;;;;2.97;1.30;;;;;;;25.87;53.87;101072.84;5193300;28;20021;-74
2022/06/16 10:39:48;;;;;;;5.03;1.52;;;;;;;25.19;54.48;101080.84;5200659;28;20494;-74
2022/06/16 10:42:24;;;;;;;2.90;1.30;;;;;;;25.36;53.81;101071.31;5200290;28;20076;-74
2022/06/16 10:45:10;;;;;;;5.47;1.42;;;;;;;25.40;55.01;101076.25;5195309;28;20766;-73
2022/06/16 10:47:49;;;;;;;3.30;1.20;;;;;;;25.43;55.77;101077.78;5192736;28;20025;-73
2022/06/16 10:50:32;;;;;;;4.30;1.50;;;;;;;25.33;55.05;101087.66;5199553;28;20033;-73
2022/06/16 10:53:10;;;;;;;5.60;1.42;;;;;;;25.16;56.58;101099.78;5200834;28;20478;-73
2022/06/16 10:55:46;;;;;;;4.40;1.60;;;;;;;25.31;54.84;101090.44;5193358;28;20075;-74
2022/06/16 10:58:25;;;;;;;3.20;1.48;;;;;;;24.99;55.13;101094.22;5195272;28;20025;-74
2022/06/16 11:01:16;;;;;;;3.90;1.65;;;;;;;24.94;54.84;101091.94;5191424;28;20029;-74
2022/06/16 11:03:52;;;;;;;2.88;1.38;;;;;;;24.67;55.97;101092.63;5195622;28;20026;-74
2022/06/16 11:06:23;;;;;;;5.10;1.55;;;;;;;24.76;56.13;101095.34;5201130;28;20564;-74
2022/06/16 11:09:03;;;;;;;5.00;1.48;;;;;;;25.28;54.61;101095.25;5199890;28;20080;-74
2022/06/16 11:12:04;;;;;;;4.43;1.48;;;;;;;25.42;53.62;101093.03;5182512;28;20192;-74
2022/06/16 11:14:47;;;;;;;4.70;1.58;;;;;;;25.32;54.14;101093.97;5193975;28;20383;-74
2022/06/16 11:17:28;;;;;;;5.10;1.50;;;;;;;25.40;53.23;101099.50;5169215;28;20033;-73
2022/06/16 11:20:04;;;;;;;7.65;1.40;;;;;;;25.10;53.96;101094.97;5200139;28;20252;-74
2022/06/16 11:22:40;;;;;;;3.33;1.40;;;;;;;24.83;53.68;101093.84;5200367;28;20022;-74
2022/06/16 11:25:30;;;;;;;3.58;1.50;;;;;;;24.50;53.75;101088.69;5196565;28;20017;-72
2022/06/16 11:28:12;;;;;;;4.32;1.40;;;;;;;24.44;54.92;101081.19;5197505;28;20025;-72
2022/06/16 11:30:47;;;;;;;4.13;1.50;;;;;;;24.88;54.31;101088.94;5172608;28;20330;-74
2022/06/16 11:36:26;;;;;;;3.83;1.20;;;;;;;25.05;53.50;101094.53;5176385;28;20183;-73
2022/06/16 11:38:59;;;;;;;5.00;1.48;;;;;;;25.21;53.52;101094.94;5199385;28;20049;-74
2022/06/16 11:41:32;;;;;;;4.47;1.40;;;;;;;24.93;53.79;101105.44;5182560;28;20029;-74
2022/06/16 11:44:32;;;;;;;2.35;1.23;;;;;;;24.23;54.85;101104.34;5198639;28;20048;-74
2022/06/16 11:47:26;;;;;;;3.13;1.40;;;;;;;24.06;55.10;101104.91;5173644;28;20025;-74
2022/06/16 11:50:10;;;;;;;4.13;1.30;;;;;;;24.27;55.31;101099.63;5186604;28;20471;-74
2022/06/16 11:52:51;;;;;;;3.33;1.30;;;;;;;24.09;55.48;101114.50;5192561;28;20561;-73
2022/06/16 11:55:31;;;;;;;3.53;1.40;;;;;;;24.41;55.10;101108.16;5200021;28;20287;-74
2022/06/16 11:58:10;;;;;;;3.25;1.50;;;;;;;24.85;55.64;101103.44;5197314;28;20371;-74
2022/06/16 12:00:51;;;;;;;3.35;1.20;;;;;;;25.18;54.60;101110.38;5188637;28;20034;-73
2022/06/16 12:03:56;;;;;;;3.65;1.40;;;;;;;24.92;54.63;101109.97;5202620;28;20111;-74
2022/06/16 12:06:38;;;;;;;3.60;1.52;;;;;;;24.99;54.05;101099.56;5200714;28;20033;-74
2022/06/16 12:09:26;;;;;;;4.32;1.27;;;;;;;24.88;54.47;101102.31;5195450;28;20136;-73
2022/06/16 12:12:25;;;;;;;5.57;1.60;;;;;;;24.75;53.44;101107.03;5185954;28;20379;-72
2022/06/16 12:15:07;;;;;;;3.80;1.58;;;;;;;24.98;54.18;101103.22;5194410;28;20398;-73
2022/06/16 12:17:57;;;;;;;4.65;1.40;;;;;;;24.42;54.22;101109.03;5183934;28;20034;-74
2022/06/16 12:20:45;;;;;;;4.28;1.33;;;;;;;24.63;54.42;101105.41;5185235;28;20033;-74
2022/06/16 12:23:35;;;;;;;5.55;1.50;;;;;;;24.51;54.59;101110.91;5195236;28;20083;-73
2022/06/16 12:26:16;;;;;;;6.60;1.52;;;;;;;24.42;55.49;101109.84;5195164;28;20021;-72
2022/06/16 12:29:09;;;;;;;6.07;1.75;;;;;;;24.40;55.24;101109.13;5174692;28;20464;-74
2022/06/16 12:31:57;;;;;;;5.00;1.50;;;;;;;24.02;54.80;101116.00;5173226;28;20045;-74
2022/06/16 12:34:53;;;;;;;3.25;1.23;;;;;;;24.52;54.58;101110.81;5203611;28;20032;-73
2022/06/16 12:37:29;;;;;;;3.30;1.20;;;;;;;24.77;53.83;101115.78;5198339;28;20048;-73
2022/06/16 12:40:11;;;;;;;3.40;1.50;;;;;;;24.65;53.15;101122.19;5202492;28;20109;-72